createdAt,value
2019-04-11T00:03:31.748Z,100784.08
2019-04-11T00:08:34.189Z,100783.86
2019-04-11T00:13:37.686Z,100788.36
2019-04-11T00:18:42.902Z,100790.33
2019-04-11T00:23:46.109Z,100792.35
2019-04-11T00:28:48.182Z,100790.50
2019-04-11T00:33:50.811Z,100802.69
2019-04-11T00:38:52.789Z,100809.92
2019-04-11T00:43:54.731Z,100797.64
2019-04-11T00:48:57.792Z,100799.86
2019-04-11T00:54:00.570Z,100801.81
2019-04-11T00:59:02.866Z,100804.66
2019-04-11T01:04:04.851Z,100812.27
2019-04-11T01:09:08.276Z,100813.61
2019-04-11T01:14:10.943Z,100815.23
2019-04-11T01:19:12.917Z,100817.77
2019-04-11T01:24:15.625Z,100816.48
2019-04-11T01:29:17.926Z,100821.98
2019-04-11T01:34:20.289Z,100818.97
2019-04-11T01:39:29.425Z,100816.31
2019-04-11T01:44:32.520Z,100822.11
2019-04-11T01:49:34.773Z,100825.95
2019-04-11T01:54:37.712Z,100834.38
2019-04-11T01:59:39.699Z,100843.86
2019-04-11T02:04:48.757Z,100845.31
2019-04-11T02:09:52.599Z,100847.78
2019-04-11T02:14:55.494Z,100849.77
2019-04-11T02:19:58.696Z,100849.77
2019-04-11T02:25:14.994Z,100858.70
2019-04-11T02:30:20.029Z,100864.06
2019-04-11T02:35:22.681Z,100864.25
2019-04-11T02:40:24.884Z,100867.25
2019-04-11T02:45:42.671Z,100868.67
2019-04-11T02:50:34.441Z,100873.49
2019-04-11T02:55:37.983Z,100878.14
2019-04-11T03:00:40.487Z,100869.97
2019-04-11T03:05:44.550Z,100888.67
2019-04-11T03:10:49.231Z,100896.44
2019-04-11T03:16:05.457Z,100892.27
2019-04-11T03:21:00.183Z,100889.89
2019-04-11T03:26:00.661Z,100891.73
2019-04-11T03:31:37.411Z,100935.80
2019-04-11T03:37:01.033Z,100901.76
2019-04-11T03:41:26.852Z,100911.80
2019-04-11T03:46:33.309Z,100911.80
2019-04-11T03:51:21.000Z,100915.42
2019-04-11T03:56:24.442Z,100914.88
2019-04-11T04:01:26.941Z,100917.36
2019-04-11T04:06:30.881Z,100919.66
2019-04-11T04:11:34.950Z,100929.02
2019-04-11T04:16:48.254Z,100935.55
2019-04-11T04:22:11.181Z,100939.31
2019-04-11T04:27:15.304Z,100948.58
2019-04-11T04:32:18.681Z,100959.28
2019-04-11T04:37:24.047Z,100956.81
2019-04-11T04:42:36.014Z,100961.16
2019-04-11T04:47:39.576Z,100965.61
2019-04-11T04:52:36.606Z,100975.25
2019-04-11T04:57:40.542Z,100985.95
2019-04-11T05:02:44.182Z,100987.16
2019-04-11T05:07:47.030Z,100986.16
2019-04-11T05:12:49.242Z,100993.51
2019-04-11T05:17:51.320Z,100995.02
2019-04-11T05:22:53.276Z,101005.72
2019-04-11T05:27:55.916Z,101011.49
2019-04-11T05:32:58.205Z,101018.22
2019-04-11T05:38:00.091Z,101015.62
2019-04-11T05:43:01.993Z,101013.59
2019-04-11T05:48:07.716Z,101013.22
2019-04-11T05:53:09.695Z,101018.27
2019-04-11T05:58:14.205Z,101021.67
2019-04-11T06:03:15.683Z,101023.75
2019-04-11T06:08:25.459Z,101023.75
2019-04-11T06:13:36.429Z,101027.13
2019-04-11T06:18:58.812Z,101033.16
2019-04-11T06:24:20.221Z,101035.27
2019-04-11T06:29:28.387Z,101036.53
2019-04-11T06:34:33.471Z,101043.51
2019-04-11T06:39:43.340Z,101047.88
2019-04-11T06:50:23.194Z,101046.30
2019-04-11T06:55:44.795Z,101047.89
2019-04-11T07:00:51.705Z,101055.17
2019-04-11T07:05:53.808Z,101055.57
2019-04-11T07:11:00.842Z,101054.41
2019-04-11T07:16:02.936Z,101056.53
2019-04-11T07:21:06.888Z,101059.04
2019-04-11T07:26:18.872Z,101058.98
2019-04-11T07:31:39.744Z,101057.55
2019-04-11T07:37:00.328Z,101062.70
2019-04-11T07:42:21.944Z,101066.54
2019-04-11T07:47:35.177Z,101065.58
2019-04-11T07:53:03.470Z,101065.41
2019-04-11T07:58:19.466Z,101064.55
2019-04-11T08:03:40.007Z,101061.52
2019-04-11T08:09:07.692Z,101064.42
2019-04-11T08:14:20.221Z,101062.53
2019-04-11T08:19:40.838Z,101071.27
2019-04-11T08:24:53.102Z,101069.25
2019-04-11T08:29:56.666Z,101066.69
2019-04-11T08:35:10.153Z,101060.05
2019-04-11T08:40:13.444Z,101063.44
2019-04-11T08:45:16.011Z,101070.63
2019-04-11T08:50:22.734Z,101069.08
2019-04-11T08:55:45.594Z,101070.83
2019-04-11T09:00:51.142Z,101075.97
2019-04-11T09:06:10.042Z,101078.73
2019-04-11T09:11:24.679Z,101086.25
2019-04-11T09:16:54.067Z,101079.25
2019-04-11T09:22:15.106Z,101069.98
2019-04-11T09:27:36.527Z,101069.57
2019-04-11T09:33:00.313Z,101078.16
2019-04-11T09:38:02.666Z,101079.80
2019-04-11T09:43:12.600Z,101076.16
2019-04-11T09:48:42.198Z,101062.67
2019-04-11T09:53:47.260Z,101077.91
2019-04-11T09:58:50.033Z,101077.83
2019-04-11T10:03:52.905Z,101074.55
2019-04-11T10:08:57.703Z,101080.22
2019-04-11T10:14:03.076Z,101068.92
2019-04-11T10:19:13.921Z,101080.20
2019-04-11T10:30:08.669Z,101070.70
2019-04-11T10:35:32.817Z,101067.48
2019-04-11T10:40:48.235Z,101071.13
2019-04-11T10:46:00.830Z,101074.71
2019-04-11T10:51:13.086Z,101070.86
2019-04-11T10:56:28.487Z,101072.75
2019-04-11T11:01:48.796Z,101067.05
2019-04-11T11:06:53.856Z,101079.41
2019-04-11T11:12:19.075Z,101068.30
2019-04-11T11:17:54.892Z,101073.25
2019-04-11T11:22:58.071Z,101075.69
2019-04-11T11:28:01.730Z,101080.02
2019-04-11T11:33:05.593Z,101082.96
2019-04-11T11:38:14.834Z,101085.88
2019-04-11T11:43:21.077Z,101083.69
2019-04-11T11:48:35.529Z,101085.70
2019-04-11T11:53:55.349Z,101092.34
2019-04-11T11:59:16.968Z,101099.87
2019-04-11T12:04:39.025Z,101095.20
2019-04-11T12:10:10.974Z,101095.43
2019-04-11T12:15:31.517Z,101098.39
2019-04-11T12:20:41.362Z,101097.65
2019-04-11T12:25:43.143Z,101091.23
2019-04-11T12:30:57.957Z,101094.68
2019-04-11T12:36:06.459Z,101093.78
2019-04-11T12:41:17.140Z,101093.97
2019-04-11T12:46:37.474Z,101087.41
2019-04-11T12:52:07.690Z,101083.20
2019-04-11T12:57:41.489Z,101082.58
2019-04-11T13:03:05.815Z,101092.23
2019-04-11T13:08:33.213Z,101093.50
2019-04-11T13:13:47.653Z,101087.01
2019-04-11T13:19:08.081Z,101083.83
2019-04-11T13:24:35.584Z,101090.67
2019-04-11T13:29:57.237Z,101087.84
2019-04-11T13:35:05.138Z,101093.86
2019-04-11T13:40:26.896Z,101088.50
2019-04-11T13:45:28.833Z,101082.66
2019-04-11T13:50:32.546Z,101086.34
2019-04-11T13:55:37.492Z,101086.09
2019-04-11T14:00:49.570Z,101087.96
2019-04-11T14:05:51.440Z,101080.77
2019-04-11T14:11:05.741Z,101081.70
2019-04-11T14:16:16.423Z,101084.28
2019-04-11T14:21:19.935Z,101080.27
2019-04-11T14:26:32.643Z,101080.34
2019-04-11T14:31:56.155Z,101081.55
2019-04-11T14:37:03.354Z,101080.48
2019-04-11T14:42:18.825Z,101089.25
2019-04-11T14:47:49.254Z,101082.60
2019-04-11T14:53:17.374Z,101090.73
2019-04-11T14:58:39.036Z,101089.97
2019-04-11T15:04:00.680Z,101095.85
2019-04-11T15:09:27.235Z,101090.91
2019-04-11T15:14:52.054Z,101095.08
2019-04-11T15:20:13.671Z,101096.31
2019-04-11T15:25:41.996Z,101097.20
2019-04-11T15:30:48.405Z,101100.33
2019-04-11T15:35:48.681Z,101100.40
2019-04-11T15:40:53.529Z,101100.60
2019-04-11T15:46:17.031Z,101102.84
2019-04-11T15:51:37.008Z,101097.66
2019-04-11T15:56:48.622Z,101102.32
2019-04-11T16:02:08.903Z,101097.87
2019-04-11T16:07:39.130Z,101101.24
2019-04-11T16:12:48.618Z,101095.62
2019-04-11T16:18:19.359Z,101102.30
2019-04-11T16:23:38.264Z,101107.58
2019-04-11T16:29:17.684Z,101098.91
2019-04-11T16:34:48.623Z,101107.55
2019-04-11T16:40:05.766Z,101112.55
2019-04-11T16:45:39.525Z,101111.25
2019-04-11T16:50:41.412Z,101113.67
2019-04-11T16:55:43.742Z,101112.24
2019-04-11T17:00:45.802Z,101116.09
2019-04-11T17:05:55.941Z,101115.64
2019-04-11T17:11:19.011Z,101120.48
2019-04-11T17:16:22.079Z,101124.50
2019-04-11T17:21:23.976Z,101125.85
2019-04-11T17:26:25.982Z,101121.41
2019-04-11T17:31:29.062Z,101128.66
2019-04-11T17:36:33.536Z,101131.87
2019-04-11T17:41:34.844Z,101135.53
2019-04-11T17:46:36.858Z,101143.33
2019-04-11T17:51:38.932Z,101157.62
2019-04-11T17:56:40.930Z,101160.80
2019-04-11T18:01:43.073Z,101163.70
2019-04-11T18:06:46.928Z,101169.63
2019-04-11T18:11:48.751Z,101179.23
2019-04-11T18:16:50.777Z,101185.75
2019-04-11T18:21:52.643Z,101193.71
2019-04-11T18:33:12.028Z,101209.84
2019-04-11T18:38:13.984Z,101211.92
2019-04-11T18:43:16.357Z,101214.36
2019-04-11T18:48:18.772Z,101215.56
2019-04-11T18:53:20.759Z,101224.80
2019-04-11T18:58:22.819Z,101228.57
2019-04-11T19:03:35.704Z,101234.23
2019-04-11T19:08:30.573Z,101235.36
2019-04-11T19:13:33.741Z,101234.49
2019-04-11T19:18:35.671Z,101242.78
2019-04-11T19:23:39.112Z,101243.89
2019-04-11T19:28:41.517Z,101245.72
2019-04-11T19:33:43.382Z,101243.89
2019-04-11T19:38:45.340Z,101244.97
2019-04-11T19:43:49.217Z,101241.19
2019-04-11T19:48:55.396Z,101249.14
2019-04-11T19:53:55.091Z,101251.62
2019-04-11T19:58:56.899Z,101248.97
2019-04-11T20:03:59.019Z,101240.25
2019-04-11T20:09:01.050Z,101243.14
2019-04-11T20:14:03.722Z,101246.91
2019-04-11T20:19:05.633Z,101252.16
2019-04-11T20:24:07.658Z,101246.61
2019-04-11T20:29:09.526Z,101247.31
2019-04-11T20:34:11.401Z,101249.01
2019-04-11T20:39:15.288Z,101251.89
2019-04-11T20:44:17.140Z,101245.98
2019-04-11T20:49:19.135Z,101245.89
2019-04-11T20:54:21.017Z,101241.17
2019-04-11T20:59:33.763Z,101244.59
2019-04-11T21:04:26.682Z,101242.67
2019-04-11T21:09:28.536Z,101250.94
2019-04-11T21:14:30.424Z,101244.49
2019-04-11T21:19:32.313Z,101245.95
2019-04-11T21:24:34.643Z,101248.69
2019-04-11T21:29:36.545Z,101241.06
2019-04-11T21:34:38.421Z,101244.13
2019-04-11T21:39:40.291Z,101243.81
2019-04-11T21:44:42.303Z,101243.18
2019-04-11T21:49:44.203Z,101246.26
2019-04-11T21:54:46.076Z,101249.00
2019-04-11T21:59:51.223Z,101247.17
2019-04-11T22:04:51.748Z,101243.16
2019-04-11T22:09:53.633Z,101242.69
2019-04-11T22:14:56.539Z,101241.36
2019-04-11T22:19:58.432Z,101234.13
2019-04-11T22:25:00.349Z,101236.23
2019-04-11T22:30:02.812Z,101230.19
2019-04-11T22:35:04.912Z,101242.89
2019-04-11T22:40:07.019Z,101240.72
2019-04-11T22:45:09.206Z,101241.72
2019-04-11T22:50:11.295Z,101237.52
2019-04-11T22:55:13.169Z,101245.41
2019-04-11T23:00:15.821Z,101239.34
2019-04-11T23:05:18.542Z,101242.27
2019-04-11T23:10:20.420Z,101241.77
2019-04-11T23:15:22.314Z,101234.00
2019-04-11T23:20:24.209Z,101243.16
2019-04-11T23:25:26.108Z,101242.61
2019-04-11T23:30:28.602Z,101238.55
2019-04-11T23:35:30.497Z,101234.62
2019-04-11T23:40:32.469Z,101245.15
2019-04-11T23:45:34.388Z,101243.33
2019-04-11T23:50:36.430Z,101248.02
2019-04-11T23:55:39.394Z,101248.62
